Time;durP1;ratioP1;P1;durP2;ratioP2;P2;SDS_P1;SDS_P2;PMS_P1;PMS_P2;Temp;Humidity;BMP_temperature;BMP_pressure;BME280_temperature;BME280_humidity;BME280_pressure;Samples;Min_cycle;Max_cycle;Signal;HPM_P1;HPM_P2
2022/09/09 00:01:14;;;;;;;3.40;1.45;;;14.40;99.90;;;;;;5008922;28;20519;-74
2022/09/09 00:04:05;;;;;;;4.22;1.40;;;14.50;99.90;;;;;;5012488;28;20436;-75
2022/09/09 00:06:42;;;;;;;4.57;1.70;;;14.50;99.90;;;;;;5008999;28;20057;-74
2022/09/09 00:09:18;;;;;;;3.58;1.60;;;14.40;99.90;;;;;;5000253;28;20032;-74
2022/09/09 00:12:22;;;;;;;;;;;14.20;99.90;;;;;;5012968;28;20029;-74
2022/09/09 00:14:56;;;;;;;4.97;1.48;;;14.50;99.90;;;;;;4943193;29;20009;-74
2022/09/09 00:17:33;;;;;;;4.03;1.30;;;14.60;99.90;;;;;;4946788;29;20067;-76
2022/09/09 00:20:19;;;;;;;3.35;1.65;;;14.70;99.90;;;;;;4983210;28;20044;-76
2022/09/09 00:22:53;;;;;;;4.55;1.60;;;14.70;99.90;;;;;;5006061;28;20506;-76
2022/09/09 00:25:54;;;;;;;4.75;1.70;;;14.70;99.90;;;;;;5000264;28;20038;-75
2022/09/09 00:28:24;;;;;;;4.95;1.85;;;14.60;99.90;;;;;;4983540;28;20041;-74
2022/09/09 00:30:50;;;;;;;5.10;1.80;;;14.50;99.90;;;;;;4998727;28;20061;-74
2022/09/09 00:33:21;;;;;;;5.68;1.60;;;14.60;99.90;;;;;;4995872;28;20100;-74
2022/09/09 00:35:53;;;;;;;5.63;1.73;;;14.70;99.90;;;;;;5012120;28;20037;-74
2022/09/09 00:38:33;;;;;;;5.65;1.60;;;14.90;99.90;;;;;;5003440;28;20498;-74
2022/09/09 00:41:09;;;;;;;5.13;1.60;;;14.90;99.90;;;;;;5010442;28;20403;-75
2022/09/09 00:43:40;;;;;;;4.10;1.52;;;14.60;99.90;;;;;;5000631;28;20023;-74
2022/09/09 00:46:39;;;;;;;3.65;1.55;;;14.50;99.90;;;;;;5011175;28;20503;-75
2022/09/09 00:49:20;;;;;;;5.53;1.38;;;14.50;99.90;;;;;;5009699;28;20023;-75
2022/09/09 00:51:54;;;;;;;5.15;1.60;;;14.70;99.90;;;;;;5005407;28;20026;-74
2022/09/09 00:54:39;;;;;;;3.67;1.50;;;15.00;99.90;;;;;;5000027;28;20022;-75
2022/09/09 00:57:24;;;;;;;4.18;1.52;;;15.10;99.90;;;;;;5011729;28;20022;-75
2022/09/09 01:00:14;;;;;;;2.65;1.40;;;15.30;99.90;;;;;;5011897;28;20038;-75
2022/09/09 01:03:05;;;;;;;2.95;1.40;;;15.30;99.90;;;;;;5010804;28;20022;-74
2022/09/09 01:05:50;;;;;;;6.45;1.73;;;15.30;99.90;;;;;;5011825;28;20455;-75
2022/09/09 01:08:34;;;;;;;3.53;1.50;;;15.40;99.90;;;;;;5011684;28;20030;-75
2022/09/09 01:11:02;;;;;;;3.25;1.48;;;15.30;99.90;;;;;;4999116;28;20377;-75
2022/09/09 01:13:30;;;;;;;3.30;1.70;;;15.40;99.90;;;;;;5009113;28;20092;-75
2022/09/09 01:16:05;;;;;;;4.93;1.80;;;15.40;99.90;;;;;;5011845;28;20037;-75
2022/09/09 01:18:39;;;;;;;7.13;1.88;;;15.40;99.90;;;;;;4998465;28;20105;-75
2022/09/09 01:21:34;;;;;;;6.65;1.70;;;15.30;99.90;;;;;;5011835;28;20026;-75
2022/09/09 01:24:06;;;;;;;3.50;1.63;;;15.30;99.90;;;;;;5000601;28;20022;-75
2022/09/09 01:26:43;;;;;;;2.90;1.63;;;15.40;99.90;;;;;;5004145;28;20416;-75
2022/09/09 01:29:11;;;;;;;4.03;1.90;;;15.40;99.90;;;;;;5005610;28;20108;-75
2022/09/09 01:31:52;;;;;;;3.92;1.65;;;15.40;99.90;;;;;;5004084;28;20042;-75
2022/09/09 01:34:18;;;;;;;5.68;1.98;;;15.40;99.90;;;;;;5005442;28;20116;-75
2022/09/09 01:36:56;;;;;;;3.83;1.60;;;15.30;99.90;;;;;;5001787;28;20022;-74
2022/09/09 01:39:21;;;;;;;3.53;1.50;;;15.20;99.90;;;;;;5011535;28;20014;-75
2022/09/09 01:41:47;;;;;;;5.25;1.80;;;15.20;99.90;;;;;;5011607;28;20034;-74
2022/09/09 01:44:13;;;;;;;3.55;1.63;;;15.20;99.90;;;;;;4994106;28;20064;-74
2022/09/09 01:46:38;;;;;;;2.47;1.48;;;15.10;99.90;;;;;;5010191;28;20029;-75
2022/09/09 01:49:06;;;;;;;5.85;2.22;;;15.20;99.90;;;;;;5009435;28;20077;-74
2022/09/09 01:51:33;;;;;;;3.47;1.73;;;15.20;99.90;;;;;;4995718;28;20025;-73
2022/09/09 01:53:59;;;;;;;3.20;1.48;;;15.20;99.90;;;;;;4998456;28;20033;-73
2022/09/09 01:56:54;;;;;;;4.20;1.50;;;15.10;99.90;;;;;;5009592;28;20093;-73
2022/09/09 01:59:35;;;;;;;4.75;1.73;;;15.20;99.90;;;;;;4995468;28;20098;-73
2022/09/09 02:02:31;;;;;;;6.63;1.67;;;15.00;99.90;;;;;;4999662;28;20022;-75
2022/09/09 02:05:19;;;;;;;3.38;2.08;;;15.10;99.90;;;;;;5001685;28;20034;-75
2022/09/09 02:07:49;;;;;;;3.83;1.52;;;15.10;99.90;;;;;;5002623;28;20030;-75
2022/09/09 02:10:30;;;;;;;4.85;1.98;;;15.20;99.90;;;;;;5008562;28;20037;-75
2022/09/09 02:13:04;;;;;;;3.58;1.50;;;15.20;99.90;;;;;;5007550;28;20030;-76
2022/09/09 02:15:42;;;;;;;3.90;1.70;;;15.20;99.90;;;;;;5014885;28;20017;-75
2022/09/09 02:18:10;;;;;;;3.40;1.48;;;15.20;99.90;;;;;;5011698;28;20396;-74
2022/09/09 02:20:38;;;;;;;3.72;1.70;;;15.20;99.90;;;;;;5004919;28;20467;-75
2022/09/09 02:23:06;;;;;;;3.15;1.55;;;15.20;99.90;;;;;;5014709;28;20038;-74
2022/09/09 02:25:35;;;;;;;3.22;1.70;;;15.10;99.90;;;;;;5004763;28;20037;-75
2022/09/09 02:28:05;;;;;;;3.85;1.40;;;15.10;99.90;;;;;;4994698;28;20042;-74
2022/09/09 02:30:32;;;;;;;5.82;1.52;;;15.10;99.90;;;;;;5005691;28;20472;-74
2022/09/09 02:32:59;;;;;;;3.15;1.38;;;15.20;99.90;;;;;;4997025;28;20034;-74
2022/09/09 02:35:27;;;;;;;3.72;1.50;;;15.20;99.90;;;;;;5005667;28;20021;-74
2022/09/09 02:37:59;;;;;;;2.75;1.45;;;15.10;99.90;;;;;;5008462;28;20030;-74
2022/09/09 02:40:24;;;;;;;4.75;1.60;;;15.20;99.90;;;;;;5007673;28;20025;-74
2022/09/09 02:42:50;;;;;;;4.30;1.50;;;15.00;99.90;;;;;;5008272;28;20036;-72
2022/09/09 02:45:18;;;;;;;6.68;1.85;;;14.90;99.90;;;;;;5007186;28;20021;-73
2022/09/09 02:48:09;;;;;;;3.47;1.52;;;15.00;99.90;;;;;;4994678;28;20121;-74
2022/09/09 02:50:55;;;;;;;2.25;1.45;;;15.10;99.90;;;;;;4997359;28;20399;-75
2022/09/09 02:53:29;;;;;;;5.28;1.70;;;15.20;99.90;;;;;;5002096;28;20034;-74
2022/09/09 02:56:05;;;;;;;2.13;1.50;;;15.10;99.90;;;;;;5001266;28;20499;-74
2022/09/09 02:58:31;;;;;;;3.85;1.70;;;15.10;99.90;;;;;;4998867;28;20034;-74
2022/09/09 03:00:57;;;;;;;4.10;1.45;;;15.20;99.90;;;;;;4994021;28;20058;-74
2022/09/09 03:03:23;;;;;;;5.03;1.70;;;15.10;99.90;;;;;;5008970;28;20033;-74
2022/09/09 03:05:49;;;;;;;7.10;1.80;;;15.10;99.90;;;;;;5005831;28;20031;-74
2022/09/09 03:08:15;;;;;;;2.28;1.60;;;15.00;99.90;;;;;;5008572;28;20049;-74
2022/09/09 03:10:41;;;;;;;2.88;1.70;;;15.30;99.90;;;;;;5005583;28;20023;-74
2022/09/09 03:13:07;;;;;;;5.10;1.67;;;15.10;99.90;;;;;;5008919;28;20451;-74
2022/09/09 03:15:33;;;;;;;4.20;1.55;;;15.10;99.90;;;;;;5004334;28;20042;-74
2022/09/09 03:18:00;;;;;;;4.47;1.80;;;15.10;99.90;;;;;;5008623;28;20029;-74
2022/09/09 03:20:27;;;;;;;4.97;2.00;;;15.10;99.90;;;;;;5013681;28;20028;-75
2022/09/09 03:22:53;;;;;;;4.15;1.70;;;15.10;99.90;;;;;;4998545;28;20105;-75
2022/09/09 03:25:19;;;;;;;3.65;1.90;;;15.10;99.90;;;;;;4994045;28;20544;-74
2022/09/09 03:27:44;;;;;;;2.30;1.73;;;15.10;99.90;;;;;;5008509;28;20113;-74
2022/09/09 03:30:10;;;;;;;5.25;2.00;;;15.30;99.90;;;;;;5005205;28;20030;-74
2022/09/09 03:32:36;;;;;;;4.25;1.80;;;15.10;99.90;;;;;;5006676;28;20033;-73
2022/09/09 03:35:02;;;;;;;3.90;2.00;;;15.10;99.90;;;;;;4993723;28;20097;-75
2022/09/09 03:37:27;;;;;;;3.63;1.73;;;15.10;99.90;;;;;;5008342;28;20033;-75
2022/09/09 03:39:54;;;;;;;3.53;2.00;;;15.10;99.90;;;;;;5013194;28;20083;-75
2022/09/09 03:42:20;;;;;;;4.63;1.95;;;15.10;99.90;;;;;;5012088;28;20160;-75
2022/09/09 03:44:49;;;;;;;4.38;2.03;;;15.10;99.90;;;;;;5005044;28;20069;-75
2022/09/09 03:47:19;;;;;;;3.20;1.90;;;15.10;99.90;;;;;;5018947;28;20057;-76
2022/09/09 03:49:45;;;;;;;2.65;1.77;;;15.10;99.90;;;;;;5002854;28;20031;-75
2022/09/09 03:52:11;;;;;;;2.13;1.55;;;15.40;99.90;;;;;;5006645;28;20603;-74
2022/09/09 03:54:37;;;;;;;3.90;1.77;;;15.20;99.90;;;;;;5003408;28;20026;-75
2022/09/09 03:57:04;;;;;;;4.45;1.73;;;15.20;99.90;;;;;;4996157;28;20023;-74
2022/09/09 03:59:30;;;;;;;3.95;1.92;;;15.10;99.90;;;;;;5003310;28;20084;-74
2022/09/09 04:01:57;;;;;;;3.53;1.90;;;15.10;99.90;;;;;;4998470;28;20426;-75
2022/09/09 04:04:22;;;;;;;4.00;1.60;;;15.00;99.90;;;;;;5001401;28;20038;-75
2022/09/09 04:06:48;;;;;;;2.78;1.70;;;15.10;99.90;;;;;;5006120;28;20030;-75
2022/09/09 04:09:14;;;;;;;4.18;1.70;;;15.10;99.90;;;;;;5003392;28;20533;-74
2022/09/09 04:11:40;;;;;;;3.60;1.67;;;15.00;99.90;;;;;;5012510;28;20384;-74
2022/09/09 04:14:05;;;;;;;4.20;1.60;;;15.00;99.90;;;;;;5002129;28;20106;-73
2022/09/09 04:16:32;;;;;;;3.40;1.92;;;15.00;99.90;;;;;;4996264;28;20022;-73
2022/09/09 04:18:59;;;;;;;4.55;1.60;;;15.10;99.90;;;;;;5012210;28;20101;-71
2022/09/09 04:21:25;;;;;;;3.03;1.80;;;15.10;99.90;;;;;;5011994;28;20029;-73
2022/09/09 04:23:51;;;;;;;2.88;1.60;;;15.20;99.90;;;;;;5012515;28;20030;-73
2022/09/09 04:26:17;;;;;;;3.35;1.80;;;15.20;99.90;;;;;;5008525;28;20030;-73
2022/09/09 04:28:43;;;;;;;5.45;1.70;;;15.20;99.90;;;;;;5002784;28;20034;-73
2022/09/09 04:31:14;;;;;;;4.75;1.83;;;15.20;99.90;;;;;;5012209;28;20034;-72
2022/09/09 04:33:40;;;;;;;5.57;1.70;;;15.20;99.90;;;;;;5000433;28;20022;-74
2022/09/09 04:36:05;;;;;;;4.07;1.98;;;15.10;99.90;;;;;;4992671;28;20476;-74
2022/09/09 04:38:31;;;;;;;3.60;1.90;;;15.20;99.90;;;;;;5002951;28;20101;-74
2022/09/09 04:40:57;;;;;;;3.92;1.80;;;15.20;99.90;;;;;;5010977;28;20022;-75
2022/09/09 04:43:23;;;;;;;3.92;1.67;;;15.10;99.90;;;;;;5001870;28;20037;-74
2022/09/09 04:45:49;;;;;;;4.50;1.80;;;15.00;99.90;;;;;;5006773;28;20022;-73
2022/09/09 04:48:15;;;;;;;2.40;1.63;;;15.10;99.90;;;;;;5010624;28;20018;-72
2022/09/09 04:50:41;;;;;;;3.38;1.48;;;15.20;99.90;;;;;;4996493;28;20380;-72
2022/09/09 04:53:07;;;;;;;4.95;1.90;;;15.20;99.90;;;;;;5012098;28;20092;-73
2022/09/09 04:55:34;;;;;;;5.55;1.92;;;15.20;99.90;;;;;;4998791;28;20018;-73
2022/09/09 04:58:07;;;;;;;4.30;1.88;;;15.30;99.90;;;;;;5011560;28;20049;-72
2022/09/09 05:00:35;;;;;;;5.45;1.77;;;15.30;99.90;;;;;;5007177;28;20392;-73
2022/09/09 05:03:05;;;;;;;2.22;1.70;;;15.20;99.90;;;;;;4992224;28;20031;-73
2022/09/09 05:05:31;;;;;;;5.43;2.10;;;15.10;99.90;;;;;;4992201;28;20480;-74
2022/09/09 05:08:08;;;;;;;3.83;1.70;;;15.30;99.90;;;;;;4990762;28;20051;-73
2022/09/09 05:10:37;;;;;;;2.88;1.67;;;15.30;99.90;;;;;;4998858;28;20064;-72
2022/09/09 05:13:04;;;;;;;3.92;1.70;;;15.30;99.90;;;;;;5011403;28;20096;-75
2022/09/09 05:15:29;;;;;;;4.13;1.65;;;15.30;99.90;;;;;;4998836;28;20022;-74
2022/09/09 05:17:59;;;;;;;3.65;1.60;;;15.30;99.90;;;;;;4997333;28;20029;-73
2022/09/09 05:20:25;;;;;;;2.78;1.67;;;15.30;99.90;;;;;;4999802;28;20026;-74
2022/09/09 05:22:54;;;;;;;3.63;1.70;;;15.30;99.90;;;;;;4996178;28;20085;-74
2022/09/09 05:25:19;;;;;;;4.35;1.80;;;15.40;99.90;;;;;;5002887;28;20032;-72
2022/09/09 05:27:45;;;;;;;4.43;1.77;;;15.50;99.90;;;;;;5013841;28;20511;-74
2022/09/09 05:30:11;;;;;;;1.63;1.52;;;15.30;99.90;;;;;;5004086;28;20048;-74
2022/09/09 05:32:36;;;;;;;5.60;1.90;;;15.40;99.90;;;;;;5014239;28;20022;-74
2022/09/09 05:35:02;;;;;;;5.40;2.00;;;15.30;99.90;;;;;;5006606;28;20027;-74
2022/09/09 05:37:30;;;;;;;6.53;2.05;;;15.30;99.90;;;;;;5008826;28;20464;-74
2022/09/09 05:39:55;;;;;;;3.08;1.95;;;15.20;99.90;;;;;;5013750;28;20018;-73
2022/09/09 05:42:21;;;;;;;3.60;1.52;;;15.30;99.90;;;;;;5019533;28;20035;-74
2022/09/09 05:44:46;;;;;;;3.78;1.60;;;15.40;99.90;;;;;;5006706;28;20058;-74
2022/09/09 05:47:12;;;;;;;4.57;1.90;;;15.30;99.90;;;;;;5010943;28;20104;-73
2022/09/09 05:49:37;;;;;;;5.75;2.30;;;15.40;99.90;;;;;;5015244;28;20033;-73
2022/09/09 05:52:03;;;;;;;4.65;1.80;;;15.40;99.90;;;;;;5000044;28;20026;-73
2022/09/09 05:54:29;;;;;;;5.30;1.90;;;15.40;99.90;;;;;;5004366;28;20498;-74
2022/09/09 05:56:55;;;;;;;2.85;1.80;;;15.40;99.90;;;;;;5013017;28;20030;-73
2022/09/09 05:59:23;;;;;;;3.15;1.70;;;15.50;99.90;;;;;;5003820;28;20068;-74
2022/09/09 06:01:48;;;;;;;3.35;1.77;;;15.50;99.90;;;;;;5013076;28;20022;-74
2022/09/09 06:04:15;;;;;;;6.80;1.90;;;15.50;99.90;;;;;;5004419;28;20044;-74
2022/09/09 06:06:41;;;;;;;4.53;1.88;;;15.50;99.90;;;;;;4999460;28;20032;-73
2022/09/09 06:09:10;;;;;;;4.53;1.70;;;15.60;99.90;;;;;;4995185;28;20534;-73
2022/09/09 06:11:37;;;;;;;3.92;1.70;;;15.60;99.90;;;;;;5008266;28;20023;-73
2022/09/09 06:14:04;;;;;;;4.68;1.80;;;15.50;99.90;;;;;;4993957;28;20117;-74
2022/09/09 06:16:32;;;;;;;2.95;1.77;;;15.50;99.90;;;;;;5008463;28;20036;-74
2022/09/09 06:18:58;;;;;;;4.75;1.90;;;15.60;99.90;;;;;;5004937;28;20109;-73
2022/09/09 06:21:26;;;;;;;3.70;1.80;;;15.60;99.90;;;;;;5011232;28;20030;-74
2022/09/09 06:23:52;;;;;;;2.88;1.92;;;15.50;99.90;;;;;;4995271;28;20034;-74
2022/09/09 06:26:26;;;;;;;5.35;2.00;;;15.40;99.90;;;;;;4995104;28;20030;-74
2022/09/09 06:28:54;;;;;;;3.33;1.83;;;15.40;99.90;;;;;;4993335;28;20157;-74
2022/09/09 06:31:22;;;;;;;3.33;1.70;;;15.50;99.90;;;;;;5006517;28;20027;-74
2022/09/09 06:33:49;;;;;;;4.25;1.90;;;15.50;99.90;;;;;;5006080;28;20053;-74
2022/09/09 06:36:23;;;;;;;2.53;1.70;;;15.70;99.90;;;;;;4999824;28;20423;-74
2022/09/09 06:38:48;;;;;;;4.43;1.83;;;15.90;99.90;;;;;;4999787;28;20019;-73
2022/09/09 06:41:16;;;;;;;6.00;1.70;;;16.20;99.90;;;;;;5012729;28;20037;-74
2022/09/09 06:43:42;;;;;;;2.97;1.63;;;16.60;99.90;;;;;;4999747;28;20058;-74
2022/09/09 06:46:16;;;;;;;3.05;1.75;;;16.60;99.90;;;;;;5012847;28;20068;-74
2022/09/09 06:48:44;;;;;;;3.08;1.83;;;16.60;99.90;;;;;;5018055;28;20121;-74
2022/09/09 06:51:16;;;;;;;3.22;1.70;;;16.70;99.90;;;;;;5003885;28;20034;-73
2022/09/09 06:53:43;;;;;;;2.45;1.88;;;16.60;99.90;;;;;;5006641;28;20025;-73
2022/09/09 06:56:27;;;;;;;4.35;2.00;;;16.70;99.90;;;;;;5004178;28;20026;-73
2022/09/09 06:58:55;;;;;;;3.28;1.70;;;16.70;99.90;;;;;;4992691;28;20030;-74
2022/09/09 07:01:23;;;;;;;8.32;4.78;;;16.70;99.90;;;;;;5002613;28;20026;-74
2022/09/09 07:03:51;;;;;;;6.78;1.80;;;16.80;99.90;;;;;;4999202;28;20026;-74
2022/09/09 07:06:24;;;;;;;3.72;2.08;;;17.00;99.90;;;;;;5000915;28;20030;-74
2022/09/09 07:08:52;;;;;;;3.50;1.60;;;16.80;99.90;;;;;;5005631;28;20028;-73
2022/09/09 07:11:18;;;;;;;3.63;1.90;;;16.90;99.90;;;;;;5005320;28;20029;-73
2022/09/09 07:13:44;;;;;;;5.53;1.95;;;16.80;99.90;;;;;;4997629;28;20030;-73
2022/09/09 07:16:12;;;;;;;6.80;1.80;;;17.00;99.90;;;;;;4999597;28;20391;-73
2022/09/09 07:18:39;;;;;;;7.22;2.25;;;16.80;99.90;;;;;;4998866;28;20059;-74
2022/09/09 07:21:06;;;;;;;4.10;1.95;;;16.80;99.90;;;;;;4999032;28;20480;-74
2022/09/09 07:23:32;;;;;;;3.88;1.75;;;16.90;99.90;;;;;;4999074;28;20018;-73
2022/09/09 07:25:58;;;;;;;3.70;1.60;;;16.90;99.90;;;;;;4998897;28;20526;-74
2022/09/09 07:28:26;;;;;;;2.60;1.40;;;17.00;99.90;;;;;;4997547;28;20479;-74
2022/09/09 07:31:02;;;;;;;5.05;1.63;;;17.10;99.90;;;;;;4998721;28;20384;-74
2022/09/09 07:33:30;;;;;;;;;;;17.00;99.90;;;;;;5004415;28;20551;-74
2022/09/09 07:36:09;;;;;;;4.70;1.58;;;17.30;99.90;;;;;;5005422;28;19905;-74
2022/09/09 07:38:39;;;;;;;5.78;1.75;;;17.30;99.90;;;;;;5000449;28;20028;-74
2022/09/09 07:41:11;;;;;;;5.18;1.52;;;17.40;99.90;;;;;;5006688;28;20041;-74
2022/09/09 07:43:39;;;;;;;6.55;1.60;;;17.50;99.90;;;;;;5004533;28;20093;-73
2022/09/09 07:46:05;;;;;;;3.53;1.50;;;17.50;99.90;;;;;;4998502;28;20394;-74
2022/09/09 07:48:31;;;;;;;4.38;1.35;;;17.40;99.90;;;;;;4998861;28;20524;-74
2022/09/09 07:51:11;;;;;;;2.33;1.33;;;17.50;99.90;;;;;;5005120;28;20025;-74
2022/09/09 07:53:38;;;;;;;4.15;1.10;;;17.70;99.90;;;;;;5003761;28;20540;-73
2022/09/09 07:56:11;;;;;;;2.35;1.27;;;17.70;99.90;;;;;;4999617;28;20117;-73
2022/09/09 07:58:39;;;;;;;4.90;1.33;;;17.60;99.90;;;;;;5009184;28;20034;-74
2022/09/09 08:01:27;;;;;;;3.20;1.35;;;17.50;99.90;;;;;;4999178;28;20040;-74
2022/09/09 08:03:59;;;;;;;2.97;1.42;;;17.40;99.90;;;;;;4996734;28;20048;-71
2022/09/09 08:06:26;;;;;;;3.10;1.50;;;17.50;99.90;;;;;;5011350;28;20026;-73
2022/09/09 08:08:52;;;;;;;2.53;1.30;;;17.50;99.90;;;;;;4998869;28;20097;-73
2022/09/09 08:11:18;;;;;;;3.75;1.40;;;17.60;99.90;;;;;;4999463;28;20052;-73
2022/09/09 08:13:44;;;;;;;4.18;1.60;;;17.70;99.90;;;;;;5006118;28;20031;-74
2022/09/09 08:16:22;;;;;;;5.00;1.40;;;17.90;99.90;;;;;;5005735;28;20117;-74
2022/09/09 08:18:52;;;;;;;5.22;1.13;;;17.80;99.90;;;;;;5000433;28;20026;-74
2022/09/09 08:21:29;;;;;;;3.13;1.27;;;17.80;99.90;;;;;;5030159;28;20029;-74
2022/09/09 08:23:56;;;;;;;3.95;1.45;;;17.80;99.90;;;;;;5005351;28;20542;-74
2022/09/09 08:26:24;;;;;;;5.05;1.30;;;18.00;99.90;;;;;;4999345;28;20029;-74
2022/09/09 08:28:52;;;;;;;2.80;1.33;;;17.90;99.90;;;;;;5268028;23;20066;-73
2022/09/09 08:31:42;;;;;;;4.13;1.30;;;18.10;99.90;;;;;;4991077;28;20492;-72
2022/09/09 08:34:09;;;;;;;2.50;1.30;;;18.10;99.90;;;;;;4980087;28;20038;-73
2022/09/09 08:36:38;;;;;;;4.70;1.63;;;18.40;99.90;;;;;;4991793;28;20025;-72
2022/09/09 08:39:06;;;;;;;2.85;1.40;;;18.30;99.90;;;;;;5003403;28;20022;-72
2022/09/09 08:42:18;;;;;;;2.65;1.25;;;18.20;99.90;;;;;;5012145;28;20480;-72
2022/09/09 08:45:05;;;;;;;2.53;1.30;;;18.20;99.90;;;;;;4932481;29;20110;-72
2022/09/09 08:47:30;;;;;;;;;;;18.20;99.90;;;;;;5005811;28;20101;-72
2022/09/09 08:50:13;;;;;;;3.00;1.10;;;18.20;99.90;;;;;;5002708;28;20000;-72
2022/09/09 08:52:47;;;;;;;3.00;1.38;;;18.40;99.90;;;;;;4999567;28;20030;-72
2022/09/09 08:55:21;;;;;;;9.52;1.55;;;18.50;99.90;;;;;;4997641;28;20112;-72
2022/09/09 08:57:51;;;;;;;3.80;1.10;;;18.60;99.90;;;;;;5002444;28;20514;-73
2022/09/09 09:00:17;;;;;;;2.80;1.10;;;18.60;99.90;;;;;;5005379;28;20050;-72
2022/09/09 09:02:59;;;;;;;4.43;0.93;;;18.60;99.90;;;;;;5002341;28;20108;-72
2022/09/09 09:05:37;;;;;;;2.85;1.25;;;18.60;99.90;;;;;;4998812;28;20034;-72
2022/09/09 09:08:29;;;;;;;2.95;1.08;;;18.70;99.90;;;;;;4998392;28;20067;-73
2022/09/09 09:11:00;;;;;;;2.50;1.13;;;18.90;99.90;;;;;;5001213;28;20027;-72
2022/09/09 09:13:40;;;;;;;3.33;1.17;;;18.90;99.90;;;;;;5005451;28;20807;-73
2022/09/09 09:16:34;;;;;;;3.67;1.08;;;18.90;99.90;;;;;;5005418;28;20025;-72
2022/09/09 09:19:00;;;;;;;2.38;0.93;;;19.10;99.90;;;;;;5000166;28;20034;-72
2022/09/09 09:21:38;;;;;;;2.80;1.23;;;19.00;99.90;;;;;;4998637;28;20044;-72
2022/09/09 09:24:15;;;;;;;2.85;1.13;;;19.20;99.90;;;;;;5000061;28;20093;-73
2022/09/09 09:26:43;;;;;;;1.95;0.82;;;19.10;99.90;;;;;;4998930;28;20149;-72
2022/09/09 09:29:16;;;;;;;4.38;1.10;;;19.30;99.90;;;;;;4998404;28;20035;-72
2022/09/09 09:31:52;;;;;;;3.40;1.20;;;19.20;99.90;;;;;;5003619;28;20132;-73
2022/09/09 09:34:17;;;;;;;;;;;19.30;99.90;;;;;;5005926;28;20050;-72
2022/09/09 09:37:04;;;;;;;2.40;1.13;;;19.50;99.90;;;;;;5001317;28;19912;-73
2022/09/09 09:39:36;;;;;;;3.97;1.10;;;19.80;99.90;;;;;;4998567;28;20044;-72
2022/09/09 09:42:13;;;;;;;3.03;1.20;;;19.70;99.90;;;;;;5011778;28;20060;-73
2022/09/09 09:44:40;;;;;;;4.28;1.00;;;20.00;99.90;;;;;;4999772;28;20022;-73
2022/09/09 09:47:13;;;;;;;4.00;1.25;;;20.00;99.90;;;;;;4998871;28;20503;-73
2022/09/09 09:49:39;;;;;;;2.85;1.20;;;19.60;99.90;;;;;;5003108;28;20078;-74
2022/09/09 09:52:06;;;;;;;5.03;1.33;;;19.50;99.90;;;;;;5005107;28;20022;-73
2022/09/09 09:54:39;;;;;;;5.05;1.23;;;19.70;99.90;;;;;;4999416;28;20037;-73
2022/09/09 09:57:10;;;;;;;5.82;1.40;;;19.60;99.90;;;;;;4998084;28;20119;-73
2022/09/09 09:59:38;;;;;;;4.53;0.98;;;19.50;99.90;;;;;;5001155;28;20106;-73
2022/09/09 10:02:13;;;;;;;4.03;1.10;;;20.00;99.90;;;;;;5004942;28;20026;-73
2022/09/09 10:04:38;;;;;;;4.85;1.10;;;20.60;99.90;;;;;;5003679;28;20058;-72
2022/09/09 10:07:21;;;;;;;4.10;1.20;;;20.50;99.90;;;;;;4996686;28;20065;-73
2022/09/09 10:09:53;;;;;;;3.80;1.10;;;20.40;99.90;;;;;;4997513;28;20030;-73
2022/09/09 10:12:36;;;;;;;3.05;1.08;;;20.20;99.90;;;;;;5001712;28;20030;-73
2022/09/09 10:15:40;;;;;;;7.18;1.25;;;20.10;99.90;;;;;;5000403;28;20022;-73
2022/09/09 10:18:17;;;;;;;3.65;1.20;;;20.50;99.90;;;;;;5001511;28;20030;-73
2022/09/09 10:21:08;;;;;;;5.07;1.20;;;20.00;99.90;;;;;;5003334;28;20026;-73
2022/09/09 10:24:13;;;;;;;3.40;1.33;;;20.30;99.90;;;;;;5002221;28;20176;-73
2022/09/09 10:26:52;;;;;;;5.43;1.30;;;20.10;99.90;;;;;;5000197;28;20046;-73
2022/09/09 10:29:37;;;;;;;4.97;1.33;;;20.50;99.90;;;;;;5001052;28;20373;-73
2022/09/09 10:32:15;;;;;;;2.83;1.10;;;21.10;99.90;;;;;;5004537;28;20026;-73
2022/09/09 10:34:46;;;;;;;3.25;1.20;;;20.80;99.90;;;;;;5008102;28;20362;-74
2022/09/09 10:37:42;;;;;;;3.85;1.23;;;20.80;99.90;;;;;;5006004;28;20030;-74
2022/09/09 10:40:36;;;;;;;5.93;1.40;;;20.80;99.90;;;;;;4992210;28;20033;-72
2022/09/09 10:43:13;;;;;;;4.57;1.50;;;20.70;99.90;;;;;;4993333;28;20177;-74
2022/09/09 10:45:54;;;;;;;3.08;1.20;;;20.50;99.90;;;;;;4996067;28;20034;-73
2022/09/09 10:48:31;;;;;;;4.78;1.48;;;19.80;99.90;;;;;;5003105;28;20027;-74
2022/09/09 10:51:11;;;;;;;2.63;1.00;;;20.30;99.90;;;;;;4999392;28;20026;-73
2022/09/09 10:54:00;;;;;;;8.52;1.08;;;20.50;99.90;;;;;;4999793;28;20026;-72
2022/09/09 10:56:28;;;;;;;6.47;1.83;;;21.20;99.90;;;;;;4994540;28;20026;-72
2022/09/09 10:59:02;;;;;;;4.32;1.30;;;22.30;99.90;;;;;;4999003;28;20065;-73
2022/09/09 11:01:44;;;;;;;6.07;1.10;;;22.40;99.90;;;;;;5012687;28;20026;-73
2022/09/09 11:04:23;;;;;;;2.33;1.20;;;22.50;99.90;;;;;;4994453;28;20027;-72
2022/09/09 11:06:53;;;;;;;4.38;1.13;;;22.60;99.90;;;;;;4997201;28;20140;-73
2022/09/09 11:09:24;;;;;;;3.40;0.95;;;22.70;99.90;;;;;;5003635;28;20081;-73
2022/09/09 11:11:55;;;;;;;2.67;1.05;;;22.30;99.90;;;;;;5011378;28;20049;-72
2022/09/09 11:14:37;;;;;;;4.22;0.95;;;21.80;99.90;;;;;;5002648;28;20603;-72
2022/09/09 11:17:10;;;;;;;4.13;1.10;;;21.40;99.90;;;;;;5000819;28;20040;-72
2022/09/09 11:19:40;;;;;;;5.05;1.30;;;21.50;99.90;;;;;;5013607;28;20073;-72
2022/09/09 11:22:33;;;;;;;2.75;0.93;;;22.00;99.90;;;;;;5013189;28;20076;-72
2022/09/09 11:25:20;;;;;;;2.67;1.00;;;21.90;99.90;;;;;;5013539;28;20097;-73
2022/09/09 11:28:17;;;;;;;2.13;0.80;;;21.40;99.90;;;;;;5013221;28;20045;-71
2022/09/09 11:30:52;;;;;;;3.05;1.10;;;21.30;99.90;;;;;;4978081;28;20496;-74
2022/09/09 11:33:23;;;;;;;4.93;1.25;;;22.10;99.90;;;;;;5000431;28;20030;-74
2022/09/09 11:36:10;;;;;;;2.13;1.17;;;21.30;99.90;;;;;;5000138;28;20019;-74
2022/09/09 11:38:47;;;;;;;4.97;1.10;;;21.40;99.90;;;;;;5001413;28;20435;-74
2022/09/09 11:41:15;;;;;;;4.13;1.17;;;21.20;99.90;;;;;;5026294;28;20032;-74
2022/09/09 11:43:44;;;;;;;3.90;0.95;;;22.00;99.90;;;;;;5013348;28;20033;-74
2022/09/09 11:46:12;;;;;;;4.38;1.35;;;22.20;99.90;;;;;;5000456;28;20053;-75
2022/09/09 11:48:45;;;;;;;3.83;1.50;;;22.70;99.90;;;;;;4999678;28;20029;-74
2022/09/09 11:51:27;;;;;;;2.97;1.15;;;22.90;99.90;;;;;;5004162;28;20413;-74
2022/09/09 11:54:02;;;;;;;4.85;0.98;;;23.50;99.90;;;;;;5006543;28;20084;-72
2022/09/09 11:56:43;;;;;;;3.05;1.20;;;23.60;99.90;;;;;;5004872;28;20427;-74
2022/09/09 11:59:25;;;;;;;3.00;1.13;;;23.50;99.90;;;;;;5000098;28;20028;-74
2022/09/09 12:01:56;;;;;;;4.78;1.13;;;23.40;99.90;;;;;;4998771;28;20049;-73
2022/09/09 12:04:25;;;;;;;2.40;0.90;;;22.50;99.90;;;;;;5003589;28;20031;-73
2022/09/09 12:06:55;;;;;;;4.50;1.25;;;22.40;99.90;;;;;;4995158;28;20030;-73
2022/09/09 12:09:27;;;;;;;4.82;1.33;;;22.30;99.90;;;;;;5001144;28;20026;-73
2022/09/09 12:12:05;;;;;;;3.63;1.05;;;22.00;99.90;;;;;;4992362;28;20034;-73
2022/09/09 12:14:38;;;;;;;4.95;0.90;;;22.00;99.90;;;;;;5005281;28;20380;-74
2022/09/09 12:17:19;;;;;;;5.50;1.13;;;21.60;99.90;;;;;;4998657;28;20484;-73
2022/09/09 12:19:44;;;;;;;2.03;0.80;;;21.40;99.90;;;;;;4999440;28;20067;-73
2022/09/09 12:22:26;;;;;;;2.67;0.60;;;21.20;99.90;;;;;;5011456;28;20472;-74
2022/09/09 12:25:03;;;;;;;1.90;0.52;;;20.50;99.90;;;;;;5006875;28;20074;-74
2022/09/09 12:27:50;;;;;;;3.10;0.80;;;20.20;99.90;;;;;;5004360;28;20377;-74
2022/09/09 12:30:16;;;;;;;4.95;0.80;;;19.70;99.90;;;;;;5002208;28;20034;-73
2022/09/09 12:32:44;;;;;;;3.95;0.60;;;19.60;99.90;;;;;;5008933;28;20030;-73
2022/09/09 12:35:11;;;;;;;1.10;0.50;;;19.10;99.90;;;;;;5002041;28;20026;-74
2022/09/09 12:37:42;;;;;;;2.05;0.60;;;19.10;99.90;;;;;;4998090;28;20025;-73
2022/09/09 12:40:29;;;;;;;1.92;0.55;;;18.90;99.90;;;;;;5005956;28;20026;-73
2022/09/09 12:42:55;;;;;;;2.00;0.40;;;19.10;99.90;;;;;;4998173;28;20427;-74
2022/09/09 12:45:26;;;;;;;1.77;0.60;;;18.90;99.90;;;;;;5014121;28;20502;-73
2022/09/09 12:47:56;;;;;;;1.05;0.47;;;19.00;99.90;;;;;;5001320;28;20037;-73
2022/09/09 12:50:28;;;;;;;1.52;0.60;;;19.10;99.90;;;;;;5004255;28;20113;-73
2022/09/09 12:53:29;;;;;;;0.65;0.50;;;19.10;99.90;;;;;;5003014;28;20030;-73
2022/09/09 12:56:12;;;;;;;1.15;0.50;;;19.30;99.90;;;;;;4950514;28;20051;-73
2022/09/09 12:58:51;;;;;;;1.60;0.63;;;19.30;99.90;;;;;;5006882;28;20396;-74
2022/09/09 13:01:28;;;;;;;1.10;0.43;;;19.40;99.90;;;;;;5003778;28;20389;-74
2022/09/09 13:04:07;;;;;;;0.70;0.60;;;19.60;99.90;;;;;;5001144;28;20022;-72
2022/09/09 13:06:39;;;;;;;1.02;0.50;;;20.20;99.90;;;;;;5003766;28;20023;-73
2022/09/09 13:09:44;;;;;;;2.05;0.80;;;19.20;99.90;;;;;;5000901;28;20026;-74
2022/09/09 13:12:22;;;;;;;1.55;0.70;;;18.90;99.90;;;;;;4997428;28;20038;-72
2022/09/09 13:14:51;;;;;;;1.33;0.60;;;18.80;99.90;;;;;;4998711;28;20018;-75
2022/09/09 13:17:52;;;;;;;3.03;0.73;;;18.70;99.90;;;;;;5001799;28;20018;-74